Time;durP1;ratioP1;P1;durP2;ratioP2;P2;SDS_P1;SDS_P2;PMS_P1;PMS_P2;Temp;Humidity;BMP_temperature;BMP_pressure;BME280_temperature;BME280_humidity;BME280_pressure;Samples;Min_cycle;Max_cycle;Signal;HPM_P1;HPM_P2
2022/10/23 00:01:34;;;;;;;26.65;14.32;;;;;;;;;;4990365;28;20432;-68
2022/10/23 00:04:02;;;;;;;28.35;14.98;;;;;;;;;;4990299;28;20458;-68
2022/10/23 00:06:30;;;;;;;26.38;15.05;;;;;;;;;;4988854;28;20052;-68
2022/10/23 00:08:55;;;;;;;31.50;16.63;;;;;;;;;;4990190;28;20055;-68
2022/10/23 00:11:23;;;;;;;26.08;15.23;;;;;;;;;;4990018;28;20466;-67
2022/10/23 00:13:49;;;;;;;32.03;15.75;;;;;;;;;;4991269;28;20024;-68
2022/10/23 00:16:15;;;;;;;29.17;15.57;;;;;;;;;;4990069;28;20384;-68
2022/10/23 00:18:40;;;;;;;32.35;15.45;;;;;;;;;;4990069;28;20425;-68
2022/10/23 00:21:08;;;;;;;27.05;13.82;;;;;;;;;;4990024;28;20510;-68
2022/10/23 00:23:34;;;;;;;22.98;14.45;;;;;;;;;;4989634;28;20470;-68
2022/10/23 00:25:59;;;;;;;27.63;12.85;;;;;;;;;;4990185;28;20455;-68
2022/10/23 00:28:25;;;;;;;26.58;13.65;;;;;;;;;;4989729;28;20338;-68
2022/10/23 00:30:50;;;;;;;29.27;14.55;;;;;;;;;;4989311;28;20476;-68
2022/10/23 00:33:16;;;;;;;27.38;15.35;;;;;;;;;;4972118;28;20343;-68
2022/10/23 00:35:41;;;;;;;24.65;14.38;;;;;;;;;;4990312;28;20443;-68
2022/10/23 00:38:07;;;;;;;26.60;13.65;;;;;;;;;;4989681;28;20025;-68
2022/10/23 00:40:33;;;;;;;26.45;14.82;;;;;;;;;;4971712;28;20084;-68
2022/10/23 00:42:59;;;;;;;29.02;14.65;;;;;;;;;;4989953;28;20489;-67
2022/10/23 00:45:32;;;;;;;27.92;14.77;;;;;;;;;;4989485;28;20468;-67
2022/10/23 00:47:59;;;;;;;30.65;14.63;;;;;;;;;;4987820;28;20383;-68
2022/10/23 00:50:25;;;;;;;26.83;14.13;;;;;;;;;;4990976;28;20459;-68
2022/10/23 00:52:52;;;;;;;35.63;15.23;;;;;;;;;;4971372;28;20455;-68
2022/10/23 00:55:19;;;;;;;24.42;12.65;;;;;;;;;;4971460;28;20424;-68
2022/10/23 00:57:44;;;;;;;25.25;12.60;;;;;;;;;;4971229;28;20348;-68
2022/10/23 01:00:15;;;;;;;24.48;12.98;;;;;;;;;;4971346;28;20032;-68
2022/10/23 01:02:41;;;;;;;31.40;14.88;;;;;;;;;;4967478;28;20375;-68
2022/10/23 01:05:07;;;;;;;30.40;15.35;;;;;;;;;;4952608;28;20333;-68
2022/10/23 01:08:00;;;;;;;33.95;16.98;;;;;;;;;;4932519;28;20488;-67
2022/10/23 01:11:01;;;;;;;28.48;14.38;;;;;;;;;;4931929;28;20025;-68
2022/10/23 01:13:41;;;;;;;27.10;15.05;;;;;;;;;;4931802;28;20412;-68
2022/10/23 01:16:19;;;;;;;25.55;13.65;;;;;;;;;;4931953;28;20368;-68
2022/10/23 01:18:53;;;;;;;25.27;13.25;;;;;;;;;;4949819;28;20433;-68
2022/10/23 01:21:30;;;;;;;22.27;13.50;;;;;;;;;;4931803;28;20579;-68
2022/10/23 01:23:55;;;;;;;26.05;13.93;;;;;;;;;;4932352;28;20153;-68
2022/10/23 01:27:08;;;;;;;21.90;13.18;;;;;;;;;;4949668;28;20034;-68
2022/10/23 01:29:38;;;;;;;22.75;13.00;;;;;;;;;;4922971;28;20053;-67
2022/10/23 01:32:43;;;;;;;20.05;11.35;;;;;;;;;;4931778;28;20412;-68
2022/10/23 01:35:22;;;;;;;19.20;12.25;;;;;;;;;;4923764;28;20445;-68
2022/10/23 01:37:54;;;;;;;22.15;13.07;;;;;;;;;;4931762;28;20025;-68
2022/10/23 01:40:23;;;;;;;23.85;13.35;;;;;;;;;;4950228;28;20171;-68
2022/10/23 01:42:53;;;;;;;23.88;12.88;;;;;;;;;;4949832;28;20113;-68
2022/10/23 01:45:24;;;;;;;21.85;13.02;;;;;;;;;;4949346;28;20095;-69
2022/10/23 01:47:49;;;;;;;25.55;13.52;;;;;;;;;;4931620;28;20384;-68
2022/10/23 01:50:16;;;;;;;27.83;14.63;;;;;;;;;;4949734;28;20352;-68
2022/10/23 01:52:41;;;;;;;22.00;12.73;;;;;;;;;;4931723;28;20341;-68
2022/10/23 01:55:09;;;;;;;23.83;13.55;;;;;;;;;;4949440;28;20026;-68
2022/10/23 01:57:35;;;;;;;21.98;13.68;;;;;;;;;;4949022;28;20349;-67
2022/10/23 02:00:05;;;;;;;23.98;13.80;;;;;;;;;;4931436;28;20381;-67
2022/10/23 02:02:31;;;;;;;24.95;13.80;;;;;;;;;;4948933;28;20018;-68
2022/10/23 02:05:25;;;;;;;29.58;14.23;;;;;;;;;;4931840;28;20120;-68
2022/10/23 02:07:52;;;;;;;25.13;13.18;;;;;;;;;;4949271;28;20480;-68
2022/10/23 02:10:18;;;;;;;25.25;14.35;;;;;;;;;;4948724;28;20057;-68
2022/10/23 02:13:04;;;;;;;23.98;13.20;;;;;;;;;;4948877;28;20383;-68
2022/10/23 02:15:30;;;;;;;24.25;12.25;;;;;;;;;;4932558;28;20349;-68
2022/10/23 02:18:10;;;;;;;21.58;12.07;;;;;;;;;;4948841;28;20322;-68
2022/10/23 02:20:46;;;;;;;30.95;13.50;;;;;;;;;;4932000;28;20404;-68
2022/10/23 02:23:17;;;;;;;19.67;11.85;;;;;;;;;;4930907;28;20336;-68
2022/10/23 02:25:49;;;;;;;25.20;13.35;;;;;;;;;;4948743;28;20538;-68
2022/10/23 02:28:17;;;;;;;22.17;13.57;;;;;;;;;;4949166;28;20411;-68
2022/10/23 02:30:44;;;;;;;22.60;12.50;;;;;;;;;;4948211;28;20068;-68
2022/10/23 02:33:10;;;;;;;22.67;12.82;;;;;;;;;;4916123;28;20724;-68
2022/10/23 02:35:36;;;;;;;22.17;12.85;;;;;;;;;;4930770;28;20345;-68
2022/10/23 02:38:01;;;;;;;23.73;13.40;;;;;;;;;;4930947;28;20436;-68
2022/10/23 02:40:40;;;;;;;26.58;12.32;;;;;;;;;;4949424;28;20460;-68
2022/10/23 02:43:18;;;;;;;25.77;13.68;;;;;;;;;;4930789;28;20472;-68
2022/10/23 02:46:09;;;;;;;30.10;12.90;;;;;;;;;;4930068;28;20319;-68
2022/10/23 02:48:44;;;;;;;20.98;12.63;;;;;;;;;;4934922;28;20425;-67
2022/10/23 02:51:39;;;;;;;19.48;11.70;;;;;;;;;;4935306;28;20507;-67
2022/10/23 02:54:09;;;;;;;26.63;13.48;;;;;;;;;;4899199;28;20047;-67
2022/10/23 02:57:05;;;;;;;23.98;12.18;;;;;;;;;;4953124;28;20333;-68
2022/10/23 02:59:43;;;;;;;23.92;10.63;;;;;;;;;;4934866;28;20477;-68
2022/10/23 03:02:34;;;;;;;27.90;13.43;;;;;;;;;;4934789;28;20448;-68
2022/10/23 03:05:00;;;;;;;23.20;12.95;;;;;;;;;;4953817;28;20337;-68
2022/10/23 03:07:26;;;;;;;26.80;13.27;;;;;;;;;;4934930;28;20421;-68
2022/10/23 03:09:51;;;;;;;25.30;13.85;;;;;;;;;;4934455;28;20455;-68
2022/10/23 03:12:16;;;;;;;20.10;11.85;;;;;;;;;;4934752;28;20421;-68
2022/10/23 03:14:42;;;;;;;25.80;14.45;;;;;;;;;;4952331;28;20026;-68
2022/10/23 03:17:08;;;;;;;24.00;12.63;;;;;;;;;;4952907;28;20418;-68
2022/10/23 03:19:34;;;;;;;22.42;12.95;;;;;;;;;;4952134;28;20449;-67
2022/10/23 03:21:59;;;;;;;22.65;12.45;;;;;;;;;;4951881;28;20369;-68
2022/10/23 03:24:24;;;;;;;21.05;12.60;;;;;;;;;;4952475;28;20153;-68
2022/10/23 03:26:49;;;;;;;21.02;12.30;;;;;;;;;;4951827;28;20481;-68
2022/10/23 03:29:15;;;;;;;19.58;11.55;;;;;;;;;;4951228;28;20399;-67
2022/10/23 03:31:40;;;;;;;22.33;11.95;;;;;;;;;;4953060;28;20449;-68
2022/10/23 03:34:09;;;;;;;19.67;11.88;;;;;;;;;;4934815;28;20498;-67
2022/10/23 03:36:35;;;;;;;18.27;11.52;;;;;;;;;;4951704;28;20042;-67
2022/10/23 03:39:00;;;;;;;22.08;12.57;;;;;;;;;;4951671;28;20471;-67
2022/10/23 03:41:26;;;;;;;21.08;12.77;;;;;;;;;;4951556;28;20384;-68
2022/10/23 03:43:51;;;;;;;18.48;11.02;;;;;;;;;;4951974;28;20430;-68
2022/10/23 03:46:16;;;;;;;22.55;12.30;;;;;;;;;;4951520;28;20402;-68
2022/10/23 03:48:42;;;;;;;17.13;11.30;;;;;;;;;;4952099;28;20026;-68
2022/10/23 03:51:07;;;;;;;21.27;10.82;;;;;;;;;;4953543;28;20022;-68
2022/10/23 03:53:33;;;;;;;22.80;12.52;;;;;;;;;;4951913;28;20322;-67
2022/10/23 03:55:58;;;;;;;21.00;12.40;;;;;;;;;;4952883;28;20417;-68
2022/10/23 03:58:24;;;;;;;18.38;10.68;;;;;;;;;;4950741;28;20411;-67
2022/10/23 04:00:49;;;;;;;18.33;10.65;;;;;;;;;;4951333;28;20456;-68
2022/10/23 04:03:15;;;;;;;20.73;11.73;;;;;;;;;;4951694;28;20429;-67
2022/10/23 04:05:41;;;;;;;20.70;11.52;;;;;;;;;;4951482;28;20354;-67
2022/10/23 04:08:06;;;;;;;16.80;10.88;;;;;;;;;;4933445;28;20423;-68
2022/10/23 04:10:32;;;;;;;21.63;11.02;;;;;;;;;;4950958;28;20145;-67
2022/10/23 04:12:57;;;;;;;19.80;11.50;;;;;;;;;;4934175;28;20477;-68
2022/10/23 04:15:22;;;;;;;19.27;10.93;;;;;;;;;;4951385;28;20421;-68
2022/10/23 04:17:48;;;;;;;22.60;11.93;;;;;;;;;;4950887;28;20524;-68
2022/10/23 04:20:13;;;;;;;21.95;12.30;;;;;;;;;;4951830;28;20456;-68
2022/10/23 04:22:38;;;;;;;20.48;11.55;;;;;;;;;;4952077;28;20433;-68
2022/10/23 04:25:04;;;;;;;17.90;10.70;;;;;;;;;;4951675;28;20433;-68
2022/10/23 04:27:30;;;;;;;20.58;11.80;;;;;;;;;;4932920;28;20497;-68
2022/10/23 04:29:55;;;;;;;20.42;12.18;;;;;;;;;;4950859;28;20136;-67
2022/10/23 04:32:20;;;;;;;18.15;10.75;;;;;;;;;;4950641;28;20125;-68
2022/10/23 04:34:45;;;;;;;20.85;12.27;;;;;;;;;;4950938;28;20345;-68
2022/10/23 04:37:11;;;;;;;19.70;11.27;;;;;;;;;;4950526;28;20464;-68
2022/10/23 04:39:36;;;;;;;23.30;12.35;;;;;;;;;;4950558;28;20433;-68
2022/10/23 04:42:01;;;;;;;23.83;12.85;;;;;;;;;;4950326;28;20416;-68
2022/10/23 04:44:27;;;;;;;20.40;11.70;;;;;;;;;;4916815;28;20424;-68
2022/10/23 04:46:52;;;;;;;21.60;11.90;;;;;;;;;;4950235;28;20488;-68
2022/10/23 04:49:18;;;;;;;20.38;11.57;;;;;;;;;;4933021;28;20451;-68
2022/10/23 04:51:43;;;;;;;17.05;10.20;;;;;;;;;;4950672;28;20388;-67
2022/10/23 04:54:08;;;;;;;19.42;10.98;;;;;;;;;;4951320;28;20353;-68
2022/10/23 04:56:34;;;;;;;21.38;10.75;;;;;;;;;;4950804;28;20038;-67
2022/10/23 04:59:00;;;;;;;18.88;10.65;;;;;;;;;;4950335;28;20030;-67
2022/10/23 05:01:25;;;;;;;19.35;11.80;;;;;;;;;;4950908;28;20340;-68
2022/10/23 05:03:52;;;;;;;18.90;10.85;;;;;;;;;;4932810;28;20345;-68
2022/10/23 05:06:18;;;;;;;23.70;11.43;;;;;;;;;;4952876;28;20433;-68
2022/10/23 05:08:43;;;;;;;21.75;11.43;;;;;;;;;;4950555;28;20396;-68
2022/10/23 05:11:09;;;;;;;19.25;10.70;;;;;;;;;;4949376;28;20442;-68
2022/10/23 05:13:34;;;;;;;20.52;10.80;;;;;;;;;;4950416;28;20401;-68
2022/10/23 05:15:59;;;;;;;21.25;10.88;;;;;;;;;;4949754;28;20381;-68
2022/10/23 05:18:35;;;;;;;23.90;11.50;;;;;;;;;;4949783;28;20053;-68
2022/10/23 05:21:09;;;;;;;25.05;11.82;;;;;;;;;;4949745;28;20464;-67
2022/10/23 05:23:35;;;;;;;21.85;12.05;;;;;;;;;;4932108;28;20523;-68
2022/10/23 05:26:02;;;;;;;22.13;11.35;;;;;;;;;;4932022;28;20465;-68
2022/10/23 05:28:27;;;;;;;21.60;12.20;;;;;;;;;;4949829;28;20337;-68
2022/10/23 05:30:53;;;;;;;24.80;13.02;;;;;;;;;;4950010;28;20368;-68
2022/10/23 05:33:18;;;;;;;19.85;10.27;;;;;;;;;;4950627;28;20412;-68
2022/10/23 05:35:44;;;;;;;24.05;11.65;;;;;;;;;;4949427;28;20373;-68
2022/10/23 05:38:09;;;;;;;27.30;12.25;;;;;;;;;;4949542;28;20392;-68
2022/10/23 05:40:35;;;;;;;22.30;12.52;;;;;;;;;;4951841;28;20476;-68
2022/10/23 05:43:00;;;;;;;21.90;11.77;;;;;;;;;;4950009;28;20357;-68
2022/10/23 05:45:26;;;;;;;23.35;12.45;;;;;;;;;;4931923;28;20469;-68
2022/10/23 05:47:52;;;;;;;20.23;12.15;;;;;;;;;;4951062;28;20357;-68
2022/10/23 05:50:18;;;;;;;26.30;11.18;;;;;;;;;;4931683;28;20053;-68
2022/10/23 05:52:47;;;;;;;21.90;12.00;;;;;;;;;;4931425;28;20066;-67
2022/10/23 05:55:13;;;;;;;23.95;11.90;;;;;;;;;;4931786;28;20759;-68
2022/10/23 05:57:39;;;;;;;21.83;10.55;;;;;;;;;;4949055;28;20475;-67
2022/10/23 06:00:05;;;;;;;23.52;12.73;;;;;;;;;;4949136;28;20053;-68
2022/10/23 06:02:32;;;;;;;24.00;11.77;;;;;;;;;;4948954;28;20029;-67
2022/10/23 06:04:57;;;;;;;29.23;12.13;;;;;;;;;;4949340;28;20022;-68
2022/10/23 06:07:24;;;;;;;21.27;12.23;;;;;;;;;;4949629;28;20029;-68
2022/10/23 06:09:50;;;;;;;25.45;13.27;;;;;;;;;;4949322;28;20445;-68
2022/10/23 06:12:15;;;;;;;21.98;11.80;;;;;;;;;;4948754;28;20384;-68
2022/10/23 06:14:40;;;;;;;27.23;12.32;;;;;;;;;;4948948;28;20046;-68
2022/10/23 06:17:06;;;;;;;24.55;12.45;;;;;;;;;;4950980;28;20401;-68
2022/10/23 06:19:31;;;;;;;25.27;12.93;;;;;;;;;;4948667;28;20437;-68
2022/10/23 06:21:56;;;;;;;17.55;9.55;;;;;;;;;;4948907;28;20401;-68
2022/10/23 06:24:22;;;;;;;22.38;11.32;;;;;;;;;;4948884;28;20471;-68
2022/10/23 06:26:48;;;;;;;20.45;10.75;;;;;;;;;;4950312;28;20341;-67
2022/10/23 06:29:13;;;;;;;23.48;10.93;;;;;;;;;;4948462;28;20493;-68
2022/10/23 06:31:40;;;;;;;23.40;12.23;;;;;;;;;;4912720;28;20551;-68
2022/10/23 06:34:05;;;;;;;25.50;11.55;;;;;;;;;;4930946;28;20469;-68
2022/10/23 06:36:31;;;;;;;22.48;11.50;;;;;;;;;;4946934;28;20283;-68
2022/10/23 06:38:56;;;;;;;21.38;11.18;;;;;;;;;;4931288;28;20341;-68
2022/10/23 06:41:22;;;;;;;22.48;11.70;;;;;;;;;;4931375;28;20392;-68
2022/10/23 06:43:49;;;;;;;21.08;11.65;;;;;;;;;;4949864;28;20441;-68
2022/10/23 06:46:14;;;;;;;22.05;11.35;;;;;;;;;;4949112;28;20346;-68
2022/10/23 06:48:43;;;;;;;19.55;11.20;;;;;;;;;;4948551;28;20415;-68
2022/10/23 06:51:14;;;;;;;21.02;10.77;;;;;;;;;;4930740;28;20454;-68
2022/10/23 06:53:39;;;;;;;17.08;10.30;;;;;;;;;;4949078;28;20445;-68
2022/10/23 06:56:06;;;;;;;23.55;11.85;;;;;;;;;;4948334;28;20345;-68
2022/10/23 06:58:33;;;;;;;17.48;9.85;;;;;;;;;;4948479;28;20392;-68
2022/10/23 07:01:04;;;;;;;19.15;11.27;;;;;;;;;;4948666;28;20519;-68
2022/10/23 07:03:30;;;;;;;22.13;10.43;;;;;;;;;;4948307;28;20398;-68
2022/10/23 07:05:55;;;;;;;16.17;9.43;;;;;;;;;;4950443;28;20437;-68
2022/10/23 07:08:20;;;;;;;19.27;10.23;;;;;;;;;;4931054;28;20437;-68
2022/10/23 07:10:46;;;;;;;17.70;10.50;;;;;;;;;;4930401;28;20369;-68
2022/10/23 07:13:12;;;;;;;21.65;10.75;;;;;;;;;;4949757;28;20433;-68
2022/10/23 07:15:38;;;;;;;18.60;10.02;;;;;;;;;;4948151;28;20456;-68
2022/10/23 07:18:05;;;;;;;17.58;10.10;;;;;;;;;;4930670;28;20514;-68
2022/10/23 07:20:30;;;;;;;17.13;9.20;;;;;;;;;;4948216;28;20456;-68
2022/10/23 07:22:56;;;;;;;17.25;8.52;;;;;;;;;;4948299;28;20464;-68
2022/10/23 07:25:23;;;;;;;15.75;9.77;;;;;;;;;;4948952;28;20512;-68
2022/10/23 07:27:48;;;;;;;13.90;8.77;;;;;;;;;;4931012;28;20480;-68
2022/10/23 07:30:14;;;;;;;15.82;9.00;;;;;;;;;;4948079;28;20536;-68
2022/10/23 07:32:39;;;;;;;17.42;9.50;;;;;;;;;;4948618;28;20057;-68
2022/10/23 07:35:05;;;;;;;19.63;8.88;;;;;;;;;;4934188;28;20408;-68
2022/10/23 07:37:31;;;;;;;15.20;8.95;;;;;;;;;;4951621;28;20380;-68
2022/10/23 07:39:56;;;;;;;16.02;9.13;;;;;;;;;;4951757;28;20045;-68
2022/10/23 07:42:21;;;;;;;18.15;10.18;;;;;;;;;;4953280;28;20528;-68
2022/10/23 07:44:46;;;;;;;19.67;10.30;;;;;;;;;;4952064;28;20340;-68
2022/10/23 07:47:12;;;;;;;16.40;10.40;;;;;;;;;;4951569;28;20504;-68
2022/10/23 07:49:37;;;;;;;15.57;9.80;;;;;;;;;;4951440;28;20641;-68
2022/10/23 07:52:04;;;;;;;17.65;8.80;;;;;;;;;;4951250;28;20465;-67
2022/10/23 07:54:29;;;;;;;18.55;9.60;;;;;;;;;;4933867;28;20083;-68
2022/10/23 07:56:55;;;;;;;19.50;10.38;;;;;;;;;;4951213;28;20045;-68
2022/10/23 07:59:20;;;;;;;14.77;8.80;;;;;;;;;;4951215;28;20441;-68
2022/10/23 08:01:47;;;;;;;20.30;9.18;;;;;;;;;;4950919;28;20508;-68
2022/10/23 08:04:12;;;;;;;16.48;9.07;;;;;;;;;;4951188;28;20045;-68
2022/10/23 08:06:37;;;;;;;17.02;9.60;;;;;;;;;;4951039;28;20460;-68
2022/10/23 08:09:03;;;;;;;17.27;9.43;;;;;;;;;;4950978;28;20131;-68
2022/10/23 08:11:34;;;;;;;16.92;9.38;;;;;;;;;;4933349;28;20603;-68
2022/10/23 08:14:01;;;;;;;14.02;8.25;;;;;;;;;;4951105;28;20318;-68
2022/10/23 08:16:26;;;;;;;15.80;9.55;;;;;;;;;;4933476;28;20391;-68
2022/10/23 08:18:52;;;;;;;19.23;9.35;;;;;;;;;;4950911;28;20026;-68
2022/10/23 08:21:17;;;;;;;17.40;8.75;;;;;;;;;;4950852;28;20420;-68
2022/10/23 08:23:43;;;;;;;14.88;8.80;;;;;;;;;;4933898;28;20426;-68
2022/10/23 08:26:09;;;;;;;16.23;8.40;;;;;;;;;;4934061;28;20455;-68
2022/10/23 08:28:35;;;;;;;18.88;9.30;;;;;;;;;;4950808;28;20405;-68
2022/10/23 08:31:18;;;;;;;13.30;7.38;;;;;;;;;;4950879;28;20511;-68
2022/10/23 08:33:43;;;;;;;14.95;8.43;;;;;;;;;;4950495;28;20459;-68
2022/10/23 08:36:26;;;;;;;17.48;9.05;;;;;;;;;;4950501;28;20433;-68
2022/10/23 08:38:53;;;;;;;16.42;8.85;;;;;;;;;;4933593;28;20372;-68
2022/10/23 08:41:23;;;;;;;18.00;9.10;;;;;;;;;;4950525;28;20092;-68
2022/10/23 08:44:05;;;;;;;20.02;9.02;;;;;;;;;;4948744;28;20356;-68
2022/10/23 08:46:35;;;;;;;17.48;8.48;;;;;;;;;;4932930;28;20472;-68
2022/10/23 08:49:12;;;;;;;15.88;8.55;;;;;;;;;;4950563;28;20433;-68
2022/10/23 08:51:40;;;;;;;19.98;9.85;;;;;;;;;;4932468;28;20029;-68
2022/10/23 08:54:42;;;;;;;19.52;10.27;;;;;;;;;;4950326;28;20487;-68
2022/10/23 08:57:14;;;;;;;17.30;9.52;;;;;;;;;;4915629;28;20436;-68
2022/10/23 08:59:43;;;;;;;22.48;11.55;;;;;;;;;;4932412;28;20460;-68
2022/10/23 09:02:15;;;;;;;18.33;10.07;;;;;;;;;;4951943;28;20333;-68
2022/10/23 09:04:43;;;;;;;20.02;11.27;;;;;;;;;;4949883;28;20034;-68
2022/10/23 09:07:21;;;;;;;17.92;9.60;;;;;;;;;;4932395;28;20373;-68
2022/10/23 09:09:49;;;;;;;24.23;11.18;;;;;;;;;;4951803;28;20437;-68
2022/10/23 09:12:23;;;;;;;16.87;9.80;;;;;;;;;;4950091;28;20420;-68
2022/10/23 09:15:14;;;;;;;22.52;10.40;;;;;;;;;;4949857;28;20049;-68
2022/10/23 09:17:41;;;;;;;16.95;9.75;;;;;;;;;;4932439;28;20345;-68
2022/10/23 09:20:22;;;;;;;16.67;9.02;;;;;;;;;;4950615;28;20433;-69
2022/10/23 09:22:56;;;;;;;16.42;9.05;;;;;;;;;;4949679;28;20417;-68
2022/10/23 09:25:33;;;;;;;19.65;8.65;;;;;;;;;;4932043;28;20443;-68
2022/10/23 09:28:00;;;;;;;20.65;9.52;;;;;;;;;;4931987;28;20341;-67
2022/10/23 09:30:33;;;;;;;19.25;9.00;;;;;;;;;;4949293;28;20409;-68
2022/10/23 09:32:59;;;;;;;18.50;9.93;;;;;;;;;;4949894;28;20030;-68
2022/10/23 09:35:28;;;;;;;20.35;9.98;;;;;;;;;;4949336;28;20377;-67
2022/10/23 09:37:54;;;;;;;15.32;8.30;;;;;;;;;;4931781;28;20552;-68
2022/10/23 09:40:40;;;;;;;16.50;9.25;;;;;;;;;;4931803;28;20352;-68
2022/10/23 09:43:17;;;;;;;19.98;9.88;;;;;;;;;;4931780;28;20326;-68
2022/10/23 09:45:43;;;;;;;14.82;8.77;;;;;;;;;;4949288;28;20345;-68
2022/10/23 09:48:11;;;;;;;29.67;12.27;;;;;;;;;;4949210;28;20026;-68
2022/10/23 09:50:36;;;;;;;17.63;8.32;;;;;;;;;;4949160;28;20356;-67
2022/10/23 09:53:02;;;;;;;16.77;9.32;;;;;;;;;;4931541;28;20026;-67
2022/10/23 09:55:27;;;;;;;14.98;8.35;;;;;;;;;;4930941;28;20447;-68
2022/10/23 09:57:53;;;;;;;12.90;8.00;;;;;;;;;;4949059;28;20393;-68
2022/10/23 10:00:26;;;;;;;15.52;8.30;;;;;;;;;;4950446;28;20433;-67
2022/10/23 10:03:00;;;;;;;15.68;8.27;;;;;;;;;;4931368;28;20029;-67
2022/10/23 10:05:29;;;;;;;16.13;7.88;;;;;;;;;;4931660;28;20516;-67
2022/10/23 10:08:19;;;;;;;11.93;7.82;;;;;;;;;;4950009;28;20352;-67
2022/10/23 10:10:51;;;;;;;16.30;8.57;;;;;;;;;;4949397;28;20360;-67
2022/10/23 10:13:31;;;;;;;13.52;7.40;;;;;;;;;;4948833;28;20026;-68
2022/10/23 10:16:01;;;;;;;12.98;7.63;;;;;;;;;;4948770;28;20089;-67
2022/10/23 10:18:50;;;;;;;11.50;6.90;;;;;;;;;;4915978;28;20502;-67
2022/10/23 10:21:20;;;;;;;12.43;6.90;;;;;;;;;;4941232;28;20409;-68
2022/10/23 10:23:49;;;;;;;11.98;7.30;;;;;;;;;;4931024;28;20425;-67
2022/10/23 10:26:28;;;;;;;19.60;7.28;;;;;;;;;;4931121;28;20077;-67
2022/10/23 10:29:32;;;;;;;14.13;7.05;;;;;;;;;;4948794;28;20511;-67
2022/10/23 10:32:23;;;;;;;9.75;6.22;;;;;;;;;;4918270;28;20053;-67
2022/10/23 10:35:27;;;;;;;14.05;6.75;;;;;;;;;;4948583;28;20087;-68
2022/10/23 10:38:14;;;;;;;12.50;5.35;;;;;;;;;;4925845;28;20342;-67
2022/10/23 10:41:13;;;;;;;12.70;6.32;;;;;;;;;;4950660;28;20369;-67
2022/10/23 10:43:47;;;;;;;13.63;6.38;;;;;;;;;;4930955;28;20433;-67
2022/10/23 10:46:18;;;;;;;8.98;5.50;;;;;;;;;;4948499;28;20393;-67
2022/10/23 10:48:52;;;;;;;10.43;5.00;;;;;;;;;;4948475;28;20389;-67
2022/10/23 10:51:36;;;;;;;10.52;4.55;;;;;;;;;;4948742;28;20433;-67
2022/10/23 10:54:31;;;;;;;9.23;4.45;;;;;;;;;;4948482;28;20042;-67
2022/10/23 10:56:58;;;;;;;7.88;4.88;;;;;;;;;;4948325;28;20345;-68
2022/10/23 10:59:32;;;;;;;6.07;3.90;;;;;;;;;;4948486;28;20385;-67
2022/10/23 11:02:22;;;;;;;6.03;3.90;;;;;;;;;;4930475;28;20057;-67
2022/10/23 11:04:56;;;;;;;6.97;4.20;;;;;;;;;;4948766;28;20440;-67
2022/10/23 11:07:24;;;;;;;5.80;3.60;;;;;;;;;;4932248;28;20468;-67
2022/10/23 11:09:50;;;;;;;7.55;4.00;;;;;;;;;;4934481;28;20349;-67
2022/10/23 11:12:22;;;;;;;7.07;3.90;;;;;;;;;;4952040;28;20089;-67
2022/10/23 11:14:49;;;;;;;6.68;3.70;;;;;;;;;;4952092;28;20433;-67
2022/10/23 11:17:18;;;;;;;7.35;3.60;;;;;;;;;;4934314;28;20376;-67
2022/10/23 11:19:52;;;;;;;6.93;3.60;;;;;;;;;;4935260;28;20044;-67
2022/10/23 11:22:27;;;;;;;6.53;3.95;;;;;;;;;;4951982;28;20436;-67
2022/10/23 11:25:30;;;;;;;5.90;3.33;;;;;;;;;;4934170;28;20389;-67
2022/10/23 11:27:56;;;;;;;5.68;3.45;;;;;;;;;;4952797;28;20457;-67
2022/10/23 11:30:33;;;;;;;6.15;3.30;;;;;;;;;;4951901;28;20515;-67
2022/10/23 11:33:10;;;;;;;6.82;3.90;;;;;;;;;;4953597;28;20088;-67
2022/10/23 11:35:39;;;;;;;5.63;3.05;;;;;;;;;;4951664;28;20384;-67
2022/10/23 11:38:28;;;;;;;5.30;2.95;;;;;;;;;;4951743;28;20460;-67
2022/10/23 11:40:57;;;;;;;4.82;2.92;;;;;;;;;;4951320;28;20346;-67
2022/10/23 11:43:32;;;;;;;5.45;3.53;;;;;;;;;;4933538;28;20453;-67
2022/10/23 11:45:59;;;;;;;13.40;3.55;;;;;;;;;;4933744;28;20469;-66
2022/10/23 11:48:41;;;;;;;11.68;3.72;;;;;;;;;;4946373;28;20420;-67
2022/10/23 11:51:26;;;;;;;340.83;22.92;;;;;;;;;;4951588;28;20034;-66
2022/10/23 11:53:51;;;;;;;407.55;29.88;;;;;;;;;;4951427;28;20034;-67
2022/10/23 11:56:19;;;;;;;766.92;72.00;;;;;;;;;;4951766;28;20455;-66
2022/10/23 11:58:48;;;;;;;928.90;101.05;;;;;;;;;;4951548;28;20368;-66
2022/10/23 12:01:16;;;;;;;;;;;;;;;;;;4934092;28;20041;-65
2022/10/23 12:04:11;;;;;;;964.67;119.38;;;;;;;;;;4951273;28;20244;-67
2022/10/23 12:06:49;;;;;;;781.53;104.13;;;;;;;;;;4937049;28;20464;-66
2022/10/23 12:09:39;;;;;;;642.53;83.53;;;;;;;;;;4933761;28;20337;-66
2022/10/23 12:12:07;;;;;;;489.23;58.80;;;;;;;;;;4932744;28;20469;-67
2022/10/23 12:14:34;;;;;;;529.28;66.72;;;;;;;;;;4950818;28;20396;-67
2022/10/23 12:17:00;;;;;;;474.85;54.97;;;;;;;;;;4932469;28;20053;-67
2022/10/23 12:19:28;;;;;;;373.48;44.80;;;;;;;;;;4932603;28;20449;-67
2022/10/23 12:21:57;;;;;;;304.30;36.80;;;;;;;;;;4950775;28;20340;-67
2022/10/23 12:24:38;;;;;;;716.83;448.85;;;;;;;;;;4950872;28;20144;-67
2022/10/23 12:27:14;;;;;;;349.42;41.03;;;;;;;;;;4951717;28;20445;-67
2022/10/23 12:30:17;;;;;;;320.30;42.67;;;;;;;;;;4949749;28;20457;-67
2022/10/23 12:33:07;;;;;;;310.98;36.22;;;;;;;;;;4933094;28;20420;-67
2022/10/23 12:36:04;;;;;;;270.92;33.42;;;;;;;;;;4951538;28;20552;-67
2022/10/23 12:38:30;;;;;;;253.10;31.88;;;;;;;;;;4950406;28;20519;-67
2022/10/23 12:41:09;;;;;;;198.98;28.63;;;;;;;;;;4957351;28;20440;-65
2022/10/23 12:43:36;;;;;;;231.00;27.80;;;;;;;;;;4966145;28;20033;-65
2022/10/23 12:46:24;;;;;;;191.65;25.40;;;;;;;;;;4984884;28;20484;-65
2022/10/23 12:48:52;;;;;;;130.80;19.45;;;;;;;;;;4982263;28;20348;-63
2022/10/23 12:51:32;;;;;;;129.05;21.88;;;;;;;;;;4989542;28;20136;-65
2022/10/23 12:53:58;;;;;;;180.10;23.25;;;;;;;;;;4989528;28;20082;-65
2022/10/23 12:56:24;;;;;;;142.52;21.77;;;;;;;;;;4979876;28;20021;-66
2022/10/23 12:58:55;;;;;;;158.35;21.45;;;;;;;;;;4969818;28;20333;-65
2022/10/23 13:01:28;;;;;;;97.72;17.45;;;;;;;;;;4968122;28;20515;-64
2022/10/23 13:04:03;;;;;;;107.50;18.63;;;;;;;;;;4972475;28;20416;-66
2022/10/23 13:06:29;;;;;;;122.00;18.88;;;;;;;;;;4971249;28;20028;-65
2022/10/23 13:08:54;;;;;;;106.93;17.08;;;;;;;;;;4971277;28;20462;-67
2022/10/23 13:11:20;;;;;;;386.70;247.63;;;;;;;;;;4989017;28;20376;-67
2022/10/23 13:13:47;;;;;;;120.60;18.50;;;;;;;;;;4968659;28;20524;-67
2022/10/23 13:16:23;;;;;;;116.88;17.15;;;;;;;;;;4969339;28;20025;-67
2022/10/23 13:18:49;;;;;;;158.35;19.42;;;;;;;;;;4969354;28;20456;-67
2022/10/23 13:21:19;;;;;;;98.22;15.15;;;;;;;;;;4969938;28;20467;-66
2022/10/23 13:23:45;;;;;;;76.53;14.60;;;;;;;;;;4969161;28;20052;-66
2022/10/23 13:26:31;;;;;;;78.68;14.35;;;;;;;;;;4964261;28;20025;-66
2022/10/23 13:28:57;;;;;;;79.43;16.08;;;;;;;;;;4949206;28;20352;-65
2022/10/23 13:31:31;;;;;;;74.22;18.25;;;;;;;;;;4930921;28;20357;-66
2022/10/23 13:34:00;;;;;;;104.53;34.97;;;;;;;;;;4969393;28;20419;-66
2022/10/23 13:36:27;;;;;;;93.32;25.83;;;;;;;;;;4985936;28;20451;-66
2022/10/23 13:39:08;;;;;;;82.55;19.92;;;;;;;;;;4988596;28;20454;-65
2022/10/23 13:41:38;;;;;;;66.63;14.75;;;;;;;;;;4988259;28;20360;-66
2022/10/23 13:44:04;;;;;;;96.55;14.95;;;;;;;;;;4986339;28;20360;-64
2022/10/23 13:46:29;;;;;;;42.50;11.50;;;;;;;;;;4978913;28;20401;-65
2022/10/23 13:48:55;;;;;;;29.27;9.27;;;;;;;;;;4989064;28;20025;-65
2022/10/23 13:51:27;;;;;;;54.20;14.07;;;;;;;;;;4989593;28;20502;-64
2022/10/23 13:53:53;;;;;;;91.57;36.63;;;;;;;;;;4978467;28;20478;-64
2022/10/23 13:56:20;;;;;;;63.80;15.65;;;;;;;;;;4968507;28;20349;-66
2022/10/23 13:58:45;;;;;;;45.40;11.68;;;;;;;;;;4970035;28;20436;-65
2022/10/23 14:01:26;;;;;;;48.90;11.43;;;;;;;;;;4968801;28;20432;-65
2022/10/23 14:03:52;;;;;;;46.20;12.52;;;;;;;;;;4967642;28;20376;-65
2022/10/23 14:06:18;;;;;;;44.03;10.70;;;;;;;;;;4968411;28;20376;-64
2022/10/23 14:08:43;;;;;;;62.97;27.70;;;;;;;;;;4968477;28;20095;-65
2022/10/23 14:11:13;;;;;;;45.80;17.50;;;;;;;;;;4968821;28;20103;-65
2022/10/23 14:13:39;;;;;;;48.50;15.23;;;;;;;;;;4968480;28;20429;-64
2022/10/23 14:16:05;;;;;;;23.63;10.25;;;;;;;;;;4968147;28;20518;-65
2022/10/23 14:18:30;;;;;;;101.28;45.40;;;;;;;;;;4967896;28;20400;-65
2022/10/23 14:21:05;;;;;;;75.32;13.82;;;;;;;;;;4968741;28;20383;-65
2022/10/23 14:23:31;;;;;;;43.83;20.55;;;;;;;;;;4968273;28;20380;-65
2022/10/23 14:26:03;;;;;;;30.33;11.88;;;;;;;;;;4968527;28;20349;-64
2022/10/23 14:28:28;;;;;;;26.00;9.57;;;;;;;;;;4968658;28;20017;-65
2022/10/23 14:30:53;;;;;;;34.75;9.68;;;;;;;;;;4968558;28;20053;-65
2022/10/23 14:33:19;;;;;;;38.55;6.85;;;;;;;;;;4972796;28;20420;-64
2022/10/23 14:35:44;;;;;;;12.02;5.70;;;;;;;;;;4977835;28;20055;-65
2022/10/23 14:38:09;;;;;;;32.10;6.22;;;;;;;;;;4968814;28;20475;-66
2022/10/23 14:40:38;;;;;;;17.55;5.65;;;;;;;;;;4974266;28;20344;-65